Weather History for KHRX - December, 2012

Change the Weather History Date:

Monday, December 3, 2012

  Actual Average (KAMA) Record (KAMA)
Temperature  
Mean Temperature 56 °F 39 °F  
Max Temperature 71 °F 52 °F 75 °F (2010)
Min Temperature 42 °F 26 °F -1 °F (1897)
Degree Days  
Heating Degree Days 8 26  
Month to date heating degree days 77  
Since 1 July heating degree days 921  
Cooling Degree Days 0 0  
Month to date cooling degree days 0  
Year to date cooling degree days 1399  
Growing Degree Days 6 (Base 50)    
Moisture  
Dew Point 23 °F    
Average Humidity 30    
Maximum Humidity 61    
Minimum Humidity 16    
Precipitation  
Precipitation 0.00 in 0.02 in 0.78 in (1947)
Month to date precipitation 0.06  
Year to date precipitation 19.71  
Snow  
Snow 0.00 in 0.10 in 4.10 in (2002)
Month to date snowfall 0.3  
Since 1 July snowfall 3.0  
Snow Depth -    
Sea Level Pressure  
Sea Level Pressure 29.97 in    
Wind  
Wind Speed 19 mph (NNW)    
Max Wind Speed 34 mph    
Max Gust Speed 47 mph    
Visibility 10 miles    
Events      
T = Trace of Precipitation, MM = Missing Value Source: NWS Daily Summary

Daily Weather History Graph

Daily Weather History Graph

Search for Another Location

Airport or City:

Trip Planner

Search our weather history database for the weather conditions in past years. The results will help you decide how hot, cold, wet, or windy it might be!

Date:

Astronomy

Dec. 03, 2012 Rise Set
Actual Time 7:40 AM CST 5:37 PM CST
Civil Twilight 7:13 AM CST 6:05 PM CST
Nautical Twilight 6:41 AM CST 6:36 PM CST
Astronomical Twilight 6:11 AM CST 7:07 PM CST
Moon 10:20 PM CST (12/3) 11:10 AM CST (12/3)
Length of Visible Light 10h 52m
Length of Day
9h 57m
Waning Gibbous, 78% of the Moon is Illuminated
Dec 3
Waning Gibbous
Dec 6
Last Quarter
Dec 13
New
Dec 19
First Quarter
Dec 28
Full

Hourly Weather History & Observations

Time (CST) Temp. Windchill Dew Point Humidity Pressure Visibility Wind Dir Wind Speed Gust Speed Precip Events Conditions
12:15 AM 53.6 °F - 17.6 °F 24% 29.91 in 10.0 mi West 18.4 mph 24.2 mph N/A   Clear
12:35 AM 51.8 °F - 17.6 °F 26% 29.91 in 10.0 mi North - - N/A   Clear
12:55 AM 51.8 °F - 17.6 °F 26% 29.90 in 10.0 mi North - - N/A   Clear
1:15 AM 50.0 °F - 17.6 °F 28% 29.90 in 10.0 mi WSW 11.5 mph - N/A   Clear
1:35 AM 50.0 °F - 17.6 °F 28% 29.90 in 10.0 mi WSW 9.2 mph 16.1 mph N/A   Clear
1:55 AM 50.0 °F - 17.6 °F 28% 29.89 in 10.0 mi WSW 15.0 mph 19.6 mph N/A   Clear
2:15 AM 46.4 °F 40.7 °F 17.6 °F 32% 29.89 in 10.0 mi SW 12.7 mph - N/A   Clear
2:35 AM 44.6 °F 37.4 °F 19.4 °F 37% 29.89 in 10.0 mi SW 16.1 mph - N/A   Clear
2:55 AM 44.6 °F 38.8 °F 17.6 °F 34% 29.87 in 10.0 mi SSW 11.5 mph - N/A   Clear
3:15 AM 48.2 °F - 19.4 °F 32% 29.87 in 10.0 mi SW 15.0 mph 21.9 mph N/A   Clear
3:35 AM 48.2 °F - 19.4 °F 32% 29.87 in 10.0 mi WSW 16.1 mph 23.0 mph N/A   Clear
3:55 AM 50.0 °F - 17.6 °F 28% 29.87 in 10.0 mi West 20.7 mph 27.6 mph N/A   Clear
4:15 AM 50.0 °F - 17.6 °F 28% 29.87 in 10.0 mi WNW 23.0 mph - N/A   Clear
4:35 AM 50.0 °F - 17.6 °F 28% 29.86 in 10.0 mi WSW 15.0 mph 24.2 mph N/A   Clear
4:55 AM 50.0 °F - 19.4 °F 30% 29.86 in 10.0 mi WSW 17.3 mph 23.0 mph N/A   Clear
5:15 AM 50.0 °F - 17.6 °F 28% 29.86 in 10.0 mi West 19.6 mph 26.5 mph N/A   Clear
5:35 AM 50.0 °F - 17.6 °F 28% 29.86 in 10.0 mi West 21.9 mph 27.6 mph N/A   Clear
5:55 AM 51.8 °F - 17.6 °F 26% 29.85 in 10.0 mi West 20.7 mph 27.6 mph N/A   Clear
6:15 AM 51.8 °F - 17.6 °F 26% 29.85 in 10.0 mi WSW 20.7 mph 25.3 mph N/A   Clear
6:35 AM 51.8 °F - 17.6 °F 26% 29.85 in 10.0 mi West 20.7 mph 29.9 mph N/A   Clear
6:55 AM 51.8 °F - 15.8 °F 24% 29.87 in 10.0 mi West 21.9 mph - N/A   Clear
7:15 AM 53.6 °F - 15.8 °F 22% 29.86 in 10.0 mi West 21.9 mph 31.1 mph N/A   Clear
7:35 AM 51.8 °F - 15.8 °F 24% 29.88 in 10.0 mi West 23.0 mph 28.8 mph N/A   Clear
7:55 AM 51.8 °F - 17.6 °F 26% 29.88 in 10.0 mi West 24.2 mph 31.1 mph N/A   Clear
8:15 AM 53.6 °F - 17.6 °F 24% 29.89 in 10.0 mi WNW 28.8 mph 39.1 mph N/A   Clear
8:35 AM 55.4 °F - 21.2 °F 26% 29.89 in 10.0 mi WNW 31.1 mph 39.1 mph N/A   Clear
9:15 AM 60.8 °F - 21.2 °F 22% 29.93 in 7.0 mi West 25.3 mph 41.4 mph N/A   Clear
9:35 AM 62.6 °F - 21.2 °F 20% 29.95 in 10.0 mi West 23.0 mph 36.8 mph N/A   Clear
9:55 AM 62.6 °F - 23.0 °F 22% 29.95 in 10.0 mi West 28.8 mph 42.6 mph N/A   Clear
10:15 AM 64.4 °F - 23.0 °F 21% 29.97 in 10.0 mi WNW 34.5 mph 47.2 mph N/A   Clear
10:35 AM 64.4 °F - 24.8 °F 22% 29.98 in 10.0 mi WNW 28.8 mph 41.4 mph N/A   Clear
10:55 AM 66.2 °F - 24.8 °F 21% 29.99 in 10.0 mi WNW 28.8 mph 40.3 mph N/A   Clear
11:15 AM 68.0 °F - 26.6 °F 21% 30.00 in 10.0 mi WNW 27.6 mph 39.1 mph N/A   Clear
11:35 AM 68.0 °F - 26.6 °F 21% 29.98 in 10.0 mi NW 25.3 mph 36.8 mph N/A   Clear
11:55 AM 68.0 °F - 26.6 °F 21% 29.98 in 10.0 mi NW 25.3 mph 35.7 mph N/A   Clear
12:15 PM 68.0 °F - 28.4 °F 23% 29.98 in 10.0 mi WNW 21.9 mph 32.2 mph N/A   Clear
12:35 PM 69.8 °F - 28.4 °F 21% 29.96 in 10.0 mi NW 20.7 mph 33.4 mph N/A   Clear
12:55 PM 69.8 °F - 28.4 °F 21% 29.96 in 10.0 mi NNW 20.7 mph 32.2 mph N/A   Clear
1:15 PM 71.6 °F - 23.0 °F 16% 29.96 in 10.0 mi NE 24.2 mph 39.1 mph N/A   Clear
1:35 PM 71.6 °F - 23.0 °F 16% 29.95 in 10.0 mi NE 19.6 mph 38.0 mph N/A   Clear
1:55 PM 71.6 °F - 23.0 °F 16% 29.96 in 10.0 mi NNE 23.0 mph 41.4 mph N/A   Clear
2:15 PM 69.8 °F - 26.6 °F 20% 29.96 in 10.0 mi NE 24.2 mph 38.0 mph N/A   Clear
2:35 PM 69.8 °F - 24.8 °F 18% 29.96 in 10.0 mi NNE 16.1 mph 35.7 mph N/A   Clear
2:55 PM 68.0 °F - 23.0 °F 18% 29.96 in 10.0 mi NE 23.0 mph 36.8 mph N/A   Clear
3:15 PM 69.8 °F - 23.0 °F 17% 29.96 in 10.0 mi NE 18.4 mph 33.4 mph N/A   Clear
3:35 PM 69.8 °F - 23.0 °F 17% 29.97 in 10.0 mi NE 26.5 mph 35.7 mph N/A   Clear
3:55 PM 66.2 °F - 23.0 °F 19% 29.97 in 10.0 mi NE 12.7 mph 34.5 mph N/A   Clear
4:15 PM 66.2 °F - 24.8 °F 21% 29.97 in 10.0 mi NE 23.0 mph 34.5 mph N/A   Clear
4:35 PM 64.4 °F - 23.0 °F 21% 29.99 in 10.0 mi NNE 12.7 mph 35.7 mph N/A   Clear
4:55 PM 66.2 °F - 24.8 °F 21% 30.00 in 10.0 mi NNE 11.5 mph 31.1 mph N/A   Clear
5:15 PM 62.6 °F - 26.6 °F 26% 30.00 in 10.0 mi NE 32.2 mph 38.0 mph N/A   Clear
5:35 PM 60.8 °F - 28.4 °F 29% 30.02 in 10.0 mi NE 21.9 mph 34.5 mph N/A   Clear
5:55 PM 59.0 °F - 28.4 °F 31% 30.02 in 10.0 mi NNE 18.4 mph 34.5 mph N/A   Clear
6:15 PM 55.4 °F - 28.4 °F 36% 30.03 in 10.0 mi NNE 12.7 mph 25.3 mph N/A   Clear
6:35 PM 53.6 °F - 28.4 °F 38% 30.04 in 10.0 mi NNE 13.8 mph 29.9 mph N/A   Clear
6:55 PM 53.6 °F - 28.4 °F 38% 30.06 in 10.0 mi NNE 24.2 mph 34.5 mph N/A   Clear
7:15 PM 51.8 °F - 28.4 °F 41% 30.08 in 10.0 mi NNE 9.2 mph 26.5 mph N/A   Clear
7:35 PM 50.0 °F - 28.4 °F 43% 30.09 in 10.0 mi NNE 18.4 mph 31.1 mph N/A   Clear
7:55 PM 51.8 °F - 28.4 °F 41% 30.10 in 10.0 mi NNE 23.0 mph 33.4 mph N/A   Clear
8:15 PM 51.8 °F - 28.4 °F 41% 30.11 in 10.0 mi NNE 12.7 mph 28.8 mph N/A   Clear
8:35 PM 50.0 °F - 28.4 °F 43% 30.10 in 10.0 mi NNE 24.2 mph 29.9 mph N/A   Clear
8:55 PM 50.0 °F - 30.2 °F 47% 30.10 in 10.0 mi NE 28.8 mph - N/A   Clear
9:15 PM 50.0 °F - 30.2 °F 47% 30.11 in 10.0 mi NE 28.8 mph - N/A   Clear
9:35 PM 50.0 °F - 30.2 °F 47% 30.12 in 10.0 mi NE 28.8 mph 32.2 mph N/A   Clear
9:55 PM 50.0 °F - 30.2 °F 47% 30.12 in 10.0 mi NE 26.5 mph - N/A   Clear
10:15 PM 48.2 °F - 30.2 °F 50% 30.13 in 10.0 mi NE 23.0 mph - N/A   Clear
10:35 PM 46.4 °F 39.0 °F 30.2 °F 53% 30.15 in 10.0 mi NE 19.6 mph 26.5 mph N/A   Clear
10:55 PM 44.6 °F 40.2 °F 30.2 °F 57% 30.16 in 10.0 mi NE 8.1 mph 24.2 mph N/A   Clear
11:15 PM 42.8 °F 38.6 °F 30.2 °F 61% 30.16 in 10.0 mi NNE 6.9 mph - N/A   Clear
11:35 PM 44.6 °F 39.7 °F 30.2 °F 57% 30.16 in 10.0 mi NE 9.2 mph - N/A   Clear
11:55 PM 46.4 °F - 32.0 °F 57% 30.16 in 10.0 mi North - - N/A   Clear